sensor_id;sensor_type;location;lat;lon;timestamp;temperature;humidity
60293;DHT22;52402;52.670;6.750;2022-09-09T00:01:29;14.00;99.90
60293;DHT22;52402;52.670;6.750;2022-09-09T00:04:00;14.00;99.90
60293;DHT22;52402;52.670;6.750;2022-09-09T00:06:30;14.00;99.90
60293;DHT22;52402;52.670;6.750;2022-09-09T00:09:12;13.90;99.90
60293;DHT22;52402;52.670;6.750;2022-09-09T00:16:49;13.90;99.90
60293;DHT22;52402;52.670;6.750;2022-09-09T00:19:38;13.90;99.90
60293;DHT22;52402;52.670;6.750;2022-09-09T00:27:19;13.80;99.90
60293;DHT22;52402;52.670;6.750;2022-09-09T00:29:58;13.80;99.90
60293;DHT22;52402;52.670;6.750;2022-09-09T00:32:28;13.80;99.90
60293;DHT22;52402;52.670;6.750;2022-09-09T00:35:16;13.80;99.90
60293;DHT22;52402;52.670;6.750;2022-09-09T00:37:44;13.80;99.90
60293;DHT22;52402;52.670;6.750;2022-09-09T00:40:33;13.90;99.90
60293;DHT22;52402;52.670;6.750;2022-09-09T00:48:22;14.00;99.90
60293;DHT22;52402;52.670;6.750;2022-09-09T00:51:07;14.10;99.90
60293;DHT22;52402;52.670;6.750;2022-09-09T00:56:16;14.10;99.90
60293;DHT22;52402;52.670;6.750;2022-09-09T00:58:54;14.20;99.90
60293;DHT22;52402;52.670;6.750;2022-09-09T01:01:23;14.20;99.90
60293;DHT22;52402;52.670;6.750;2022-09-09T01:03:53;14.30;99.90
60293;DHT22;52402;52.670;6.750;2022-09-09T01:12:15;14.30;99.90
60293;DHT22;52402;52.670;6.750;2022-09-09T01:14:50;14.30;99.90
60293;DHT22;52402;52.670;6.750;2022-09-09T01:17:33;14.30;99.90
60293;DHT22;52402;52.670;6.750;2022-09-09T01:25:28;14.40;99.90
60293;DHT22;52402;52.670;6.750;2022-09-09T01:28:03;14.40;99.90
60293;DHT22;52402;52.670;6.750;2022-09-09T01:30:30;14.40;99.90
60293;DHT22;52402;52.670;6.750;2022-09-09T01:32:59;14.40;99.90
60293;DHT22;52402;52.670;6.750;2022-09-09T01:38:08;14.40;99.90
60293;DHT22;52402;52.670;6.750;2022-09-09T01:40:34;14.30;99.90
60293;DHT22;52402;52.670;6.750;2022-09-09T01:43:00;14.30;99.90
60293;DHT22;52402;52.670;6.750;2022-09-09T01:45:26;14.30;99.90
60293;DHT22;52402;52.670;6.750;2022-09-09T01:47:52;14.30;99.90
60293;DHT22;52402;52.670;6.750;2022-09-09T01:50:18;14.30;99.90
60293;DHT22;52402;52.670;6.750;2022-09-09T01:52:47;14.30;99.90
60293;DHT22;52402;52.670;6.750;2022-09-09T01:55:14;14.30;99.90
60293;DHT22;52402;52.670;6.750;2022-09-09T02:00:59;14.30;99.90
60293;DHT22;52402;52.670;6.750;2022-09-09T02:03:28;14.30;99.90
60293;DHT22;52402;52.670;6.750;2022-09-09T02:06:00;14.30;99.90
60293;DHT22;52402;52.670;6.750;2022-09-09T02:13:31;14.30;99.90
60293;DHT22;52402;52.670;6.750;2022-09-09T02:18:47;14.40;99.90
60293;DHT22;52402;52.670;6.750;2022-09-09T02:21:14;14.40;99.90
60293;DHT22;52402;52.670;6.750;2022-09-09T02:23:42;14.40;99.90
60293;DHT22;52402;52.670;6.750;2022-09-09T02:26:10;14.40;99.90
60293;DHT22;52402;52.670;6.750;2022-09-09T02:28:39;14.40;99.90
60293;DHT22;52402;52.670;6.750;2022-09-09T02:31:06;14.40;99.90
60293;DHT22;52402;52.670;6.750;2022-09-09T02:33:41;14.40;99.90
60293;DHT22;52402;52.670;6.750;2022-09-09T02:36:09;14.40;99.90
60293;DHT22;52402;52.670;6.750;2022-09-09T02:38:40;14.40;99.90
60293;DHT22;52402;52.670;6.750;2022-09-09T02:41:08;14.40;99.90
60293;DHT22;52402;52.670;6.750;2022-09-09T02:43:34;14.30;99.90
60293;DHT22;52402;52.670;6.750;2022-09-09T02:48:40;14.30;99.90
60293;DHT22;52402;52.670;6.750;2022-09-09T02:51:45;14.30;99.90
60293;DHT22;52402;52.670;6.750;2022-09-09T02:56:51;14.30;99.90
60293;DHT22;52402;52.670;6.750;2022-09-09T02:59:18;14.30;99.90
60293;DHT22;52402;52.670;6.750;2022-09-09T03:01:44;14.20;99.90
60293;DHT22;52402;52.670;6.750;2022-09-09T03:04:10;14.30;99.90
60293;DHT22;52402;52.670;6.750;2022-09-09T03:06:36;14.20;99.90
60293;DHT22;52402;52.670;6.750;2022-09-09T03:09:02;14.20;99.90
60293;DHT22;52402;52.670;6.750;2022-09-09T03:11:28;14.20;99.90
60293;DHT22;52402;52.670;6.750;2022-09-09T03:13:54;14.20;99.90
60293;DHT22;52402;52.670;6.750;2022-09-09T03:16:22;14.20;99.90
60293;DHT22;52402;52.670;6.750;2022-09-09T03:18:47;14.20;99.90
60293;DHT22;52402;52.670;6.750;2022-09-09T03:21:13;14.20;99.90
60293;DHT22;52402;52.670;6.750;2022-09-09T03:23:39;14.20;99.90
60293;DHT22;52402;52.670;6.750;2022-09-09T03:26:05;14.20;99.90
60293;DHT22;52402;52.670;6.750;2022-09-09T03:28:30;14.20;99.90
60293;DHT22;52402;52.670;6.750;2022-09-09T03:31:04;14.20;99.90
60293;DHT22;52402;52.670;6.750;2022-09-09T03:33:30;14.30;99.90
60293;DHT22;52402;52.670;6.750;2022-09-09T03:35:57;14.20;99.90
60293;DHT22;52402;52.670;6.750;2022-09-09T03:38:24;14.30;99.90
60293;DHT22;52402;52.670;6.750;2022-09-09T03:40:54;14.30;99.90
60293;DHT22;52402;52.670;6.750;2022-09-09T03:43:24;14.30;99.90
60293;DHT22;52402;52.670;6.750;2022-09-09T03:45:51;14.30;99.90
60293;DHT22;52402;52.670;6.750;2022-09-09T03:48:17;14.30;99.90
60293;DHT22;52402;52.670;6.750;2022-09-09T03:50:51;14.30;99.90
60293;DHT22;52402;52.670;6.750;2022-09-09T03:53:18;14.30;99.90
60293;DHT22;52402;52.670;6.750;2022-09-09T03:55:47;14.30;99.90
60293;DHT22;52402;52.670;6.750;2022-09-09T03:58:15;14.30;99.90
60293;DHT22;52402;52.670;6.750;2022-09-09T04:00:41;14.20;99.90
60293;DHT22;52402;52.670;6.750;2022-09-09T04:03:10;14.30;99.90
60293;DHT22;52402;52.670;6.750;2022-09-09T04:05:36;14.30;99.90
60293;DHT22;52402;52.670;6.750;2022-09-09T04:08:08;14.20;99.90
60293;DHT22;52402;52.670;6.750;2022-09-09T04:10:34;14.30;99.90
60293;DHT22;52402;52.670;6.750;2022-09-09T04:13:05;14.20;99.90
60293;DHT22;52402;52.670;6.750;2022-09-09T04:15:31;14.30;99.90
60293;DHT22;52402;52.670;6.750;2022-09-09T04:17:57;14.30;99.90
60293;DHT22;52402;52.670;6.750;2022-09-09T04:20:23;14.20;99.90
60293;DHT22;52402;52.670;6.750;2022-09-09T04:22:49;14.20;99.90
60293;DHT22;52402;52.670;6.750;2022-09-09T04:25:15;14.20;99.90
60293;DHT22;52402;52.670;6.750;2022-09-09T04:27:40;14.20;99.90
60293;DHT22;52402;52.670;6.750;2022-09-09T04:30:07;14.20;99.90
60293;DHT22;52402;52.670;6.750;2022-09-09T04:32:33;14.20;99.90
60293;DHT22;52402;52.670;6.750;2022-09-09T04:34:59;14.20;99.90
60293;DHT22;52402;52.670;6.750;2022-09-09T04:37:24;14.10;99.90
60293;DHT22;52402;52.670;6.750;2022-09-09T04:39:50;14.10;99.90
60293;DHT22;52402;52.670;6.750;2022-09-09T04:42:16;14.10;99.90
60293;DHT22;52402;52.670;6.750;2022-09-09T04:44:43;14.00;99.90
60293;DHT22;52402;52.670;6.750;2022-09-09T04:47:09;14.00;99.90
60293;DHT22;52402;52.670;6.750;2022-09-09T04:49:35;14.00;99.90
60293;DHT22;52402;52.670;6.750;2022-09-09T04:52:03;14.00;99.90
60293;DHT22;52402;52.670;6.750;2022-09-09T04:54:29;13.90;99.90
60293;DHT22;52402;52.670;6.750;2022-09-09T04:56:54;13.90;99.90
60293;DHT22;52402;52.670;6.750;2022-09-09T04:59:20;13.90;99.90
60293;DHT22;52402;52.670;6.750;2022-09-09T05:01:47;13.90;99.90
60293;DHT22;52402;52.670;6.750;2022-09-09T05:04:13;13.80;99.90
60293;DHT22;52402;52.670;6.750;2022-09-09T05:06:40;13.80;99.90
60293;DHT22;52402;52.670;6.750;2022-09-09T05:09:07;13.80;99.90
60293;DHT22;52402;52.670;6.750;2022-09-09T05:11:33;13.80;99.90
60293;DHT22;52402;52.670;6.750;2022-09-09T05:14:02;13.70;99.90
60293;DHT22;52402;52.670;6.750;2022-09-09T05:16:28;13.70;99.90
60293;DHT22;52402;52.670;6.750;2022-09-09T05:18:53;13.70;99.90
60293;DHT22;52402;52.670;6.750;2022-09-09T05:21:21;13.70;99.90
60293;DHT22;52402;52.670;6.750;2022-09-09T05:23:47;13.70;99.90
60293;DHT22;52402;52.670;6.750;2022-09-09T05:26:15;13.70;99.90
60293;DHT22;52402;52.670;6.750;2022-09-09T05:28:41;13.70;99.90
60293;DHT22;52402;52.670;6.750;2022-09-09T05:31:08;13.70;99.90
60293;DHT22;52402;52.670;6.750;2022-09-09T05:33:35;13.70;99.90
60293;DHT22;52402;52.670;6.750;2022-09-09T05:36:09;13.70;99.90
60293;DHT22;52402;52.670;6.750;2022-09-09T05:38:36;13.70;99.90
60293;DHT22;52402;52.670;6.750;2022-09-09T05:41:03;13.70;99.90
60293;DHT22;52402;52.670;6.750;2022-09-09T05:43:29;13.80;99.90
60293;DHT22;52402;52.670;6.750;2022-09-09T05:46:01;13.80;99.90
60293;DHT22;52402;52.670;6.750;2022-09-09T05:48:38;13.90;99.90
60293;DHT22;52402;52.670;6.750;2022-09-09T05:51:06;13.90;99.90
60293;DHT22;52402;52.670;6.750;2022-09-09T05:53:35;14.00;99.90
60293;DHT22;52402;52.670;6.750;2022-09-09T05:56:04;14.00;99.90
60293;DHT22;52402;52.670;6.750;2022-09-09T05:58:34;14.00;99.90
60293;DHT22;52402;52.670;6.750;2022-09-09T06:01:07;14.00;99.90
60293;DHT22;52402;52.670;6.750;2022-09-09T06:03:38;14.10;99.90
60293;DHT22;52402;52.670;6.750;2022-09-09T06:06:09;14.20;99.90
60293;DHT22;52402;52.670;6.750;2022-09-09T06:08:37;14.20;99.90
60293;DHT22;52402;52.670;6.750;2022-09-09T06:11:15;14.20;99.90
60293;DHT22;52402;52.670;6.750;2022-09-09T06:13:42;14.20;99.90
60293;DHT22;52402;52.670;6.750;2022-09-09T06:16:12;14.30;99.90
60293;DHT22;52402;52.670;6.750;2022-09-09T06:18:39;14.30;99.90
60293;DHT22;52402;52.670;6.750;2022-09-09T06:21:06;14.30;99.90
60293;DHT22;52402;52.670;6.750;2022-09-09T06:23:34;14.40;99.90
60293;DHT22;52402;52.670;6.750;2022-09-09T06:26:09;14.40;99.90
60293;DHT22;52402;52.670;6.750;2022-09-09T06:28:35;14.50;99.90
60293;DHT22;52402;52.670;6.750;2022-09-09T06:31:07;14.50;99.90
60293;DHT22;52402;52.670;6.750;2022-09-09T06:33:35;14.50;99.90
60293;DHT22;52402;52.670;6.750;2022-09-09T06:36:03;14.60;99.90
60293;DHT22;52402;52.670;6.750;2022-09-09T06:38:29;14.60;99.90
60293;DHT22;52402;52.670;6.750;2022-09-09T06:40:56;14.60;99.90
60293;DHT22;52402;52.670;6.750;2022-09-09T06:43:27;14.70;99.90
60293;DHT22;52402;52.670;6.750;2022-09-09T06:46:01;14.70;99.90
60293;DHT22;52402;52.670;6.750;2022-09-09T06:48:27;14.80;99.90
60293;DHT22;52402;52.670;6.750;2022-09-09T06:51:07;14.90;99.90
60293;DHT22;52402;52.670;6.750;2022-09-09T06:53:35;15.00;99.90
60293;DHT22;52402;52.670;6.750;2022-09-09T06:58:45;15.10;99.90
60293;DHT22;52402;52.670;6.750;2022-09-09T07:01:12;15.10;99.90
60293;DHT22;52402;52.670;6.750;2022-09-09T07:03:44;15.20;99.90
60293;DHT22;52402;52.670;6.750;2022-09-09T07:06:15;15.20;99.90
60293;DHT22;52402;52.670;6.750;2022-09-09T07:08:42;15.30;99.90
60293;DHT22;52402;52.670;6.750;2022-09-09T07:11:08;15.30;99.90
60293;DHT22;52402;52.670;6.750;2022-09-09T07:13:35;15.40;99.90
60293;DHT22;52402;52.670;6.750;2022-09-09T07:16:19;15.40;99.90
60293;DHT22;52402;52.670;6.750;2022-09-09T07:18:46;15.50;99.90
60293;DHT22;52402;52.670;6.750;2022-09-09T07:21:13;15.50;99.90
60293;DHT22;52402;52.670;6.750;2022-09-09T07:23:39;15.50;99.90
60293;DHT22;52402;52.670;6.750;2022-09-09T07:26:14;15.60;99.90
60293;DHT22;52402;52.670;6.750;2022-09-09T07:28:40;15.60;99.90
60293;DHT22;52402;52.670;6.750;2022-09-09T07:31:07;15.60;99.90
60293;DHT22;52402;52.670;6.750;2022-09-09T07:33:34;15.70;99.90
60293;DHT22;52402;52.670;6.750;2022-09-09T07:36:06;15.70;99.90
60293;DHT22;52402;52.670;6.750;2022-09-09T07:38:37;15.70;99.90
60293;DHT22;52402;52.670;6.750;2022-09-09T07:41:07;15.80;99.90
60293;DHT22;52402;52.670;6.750;2022-09-09T07:43:34;15.90;99.90
60293;DHT22;52402;52.670;6.750;2022-09-09T07:46:00;16.00;99.90
60293;DHT22;52402;52.670;6.750;2022-09-09T07:48:28;16.10;99.90
60293;DHT22;52402;52.670;6.750;2022-09-09T07:51:10;16.10;99.90
60293;DHT22;52402;52.670;6.750;2022-09-09T07:53:40;16.10;99.90
60293;DHT22;52402;52.670;6.750;2022-09-09T07:56:09;16.10;99.90
60293;DHT22;52402;52.670;6.750;2022-09-09T07:58:36;16.10;99.90
60293;DHT22;52402;52.670;6.750;2022-09-09T08:01:46;16.20;99.90
60293;DHT22;52402;52.670;6.750;2022-09-09T08:04:18;16.30;99.90
60293;DHT22;52402;52.670;6.750;2022-09-09T08:06:49;16.40;99.90
60293;DHT22;52402;52.670;6.750;2022-09-09T08:09:16;16.40;99.90
60293;DHT22;52402;52.670;6.750;2022-09-09T08:11:42;16.50;99.90
60293;DHT22;52402;52.670;6.750;2022-09-09T08:14:09;16.50;99.90
60293;DHT22;52402;52.670;6.750;2022-09-09T08:16:38;16.60;99.90
60293;DHT22;52402;52.670;6.750;2022-09-09T08:19:05;16.70;99.90
60293;DHT22;52402;52.670;6.750;2022-09-09T08:21:34;16.70;99.90
60293;DHT22;52402;52.670;6.750;2022-09-09T08:24:01;16.80;99.90
60293;DHT22;52402;52.670;6.750;2022-09-09T08:26:30;17.00;99.90
60293;DHT22;52402;52.670;6.750;2022-09-09T08:28:58;17.00;99.90
60293;DHT22;52402;52.670;6.750;2022-09-09T08:31:27;17.10;99.90
60293;DHT22;52402;52.670;6.750;2022-09-09T08:33:58;17.10;99.90
60293;DHT22;52402;52.670;6.750;2022-09-09T08:36:28;17.10;99.90
60293;DHT22;52402;52.670;6.750;2022-09-09T08:38:56;17.20;99.90
60293;DHT22;52402;52.670;6.750;2022-09-09T08:41:39;17.30;99.90
60293;DHT22;52402;52.670;6.750;2022-09-09T08:55:35;17.70;99.90
60293;DHT22;52402;52.670;6.750;2022-09-09T08:58:05;17.70;99.90
60293;DHT22;52402;52.670;6.750;2022-09-09T09:11:48;17.90;99.90
60293;DHT22;52402;52.670;6.750;2022-09-09T09:14:23;18.00;99.90
60293;DHT22;52402;52.670;6.750;2022-09-09T09:17:04;17.90;99.90
60293;DHT22;52402;52.670;6.750;2022-09-09T09:19:33;17.90;99.90
60293;DHT22;52402;52.670;6.750;2022-09-09T09:27:49;18.20;99.90
60293;DHT22;52402;52.670;6.750;2022-09-09T09:30:18;18.30;99.90
60293;DHT22;52402;52.670;6.750;2022-09-09T09:33:00;18.20;99.90
60293;DHT22;52402;52.670;6.750;2022-09-09T09:35:27;18.20;99.90
60293;DHT22;52402;52.670;6.750;2022-09-09T09:37:53;18.20;99.90
60293;DHT22;52402;52.670;6.750;2022-09-09T09:40:21;18.20;99.90
60293;DHT22;52402;52.670;6.750;2022-09-09T09:43:00;18.20;99.90
60293;DHT22;52402;52.670;6.750;2022-09-09T09:45:35;18.20;99.90
60293;DHT22;52402;52.670;6.750;2022-09-09T09:48:09;18.20;99.90
60293;DHT22;52402;52.670;6.750;2022-09-09T09:50:39;18.30;99.90
60293;DHT22;52402;52.670;6.750;2022-09-09T09:53:25;18.30;99.90
60293;DHT22;52402;52.670;6.750;2022-09-09T09:56:13;18.40;99.90
60293;DHT22;52402;52.670;6.750;2022-09-09T09:58:49;18.50;99.90
60293;DHT22;52402;52.670;6.750;2022-09-09T10:01:31;18.60;99.90
60293;DHT22;52402;52.670;6.750;2022-09-09T10:04:22;18.60;99.90
60293;DHT22;52402;52.670;6.750;2022-09-09T10:06:51;18.80;99.90
60293;DHT22;52402;52.670;6.750;2022-09-09T10:09:28;18.80;99.90
60293;DHT22;52402;52.670;6.750;2022-09-09T10:19:46;19.00;99.90
60293;DHT22;52402;52.670;6.750;2022-09-09T10:22:28;19.10;99.90
60293;DHT22;52402;52.670;6.750;2022-09-09T10:25:30;19.20;99.90
60293;DHT22;52402;52.670;6.750;2022-09-09T10:33:49;19.20;99.90
60293;DHT22;52402;52.670;6.750;2022-09-09T10:36:24;19.40;99.90
60293;DHT22;52402;52.670;6.750;2022-09-09T10:39:06;19.40;99.90
60293;DHT22;52402;52.670;6.750;2022-09-09T10:47:35;19.70;99.90
60293;DHT22;52402;52.670;6.750;2022-09-09T10:55:32;19.70;99.90
60293;DHT22;52402;52.670;6.750;2022-09-09T10:58:03;19.70;99.90
60293;DHT22;52402;52.670;6.750;2022-09-09T11:00:40;19.80;99.90
60293;DHT22;52402;52.670;6.750;2022-09-09T11:03:15;20.00;99.90
60293;DHT22;52402;52.670;6.750;2022-09-09T11:05:47;20.10;99.90
60293;DHT22;52402;52.670;6.750;2022-09-09T11:08:24;20.30;99.90
60293;DHT22;52402;52.670;6.750;2022-09-09T11:11:12;20.40;99.90
60293;DHT22;52402;52.670;6.750;2022-09-09T11:13:43;20.50;99.90
60293;DHT22;52402;52.670;6.750;2022-09-09T11:16:22;20.60;99.90
60293;DHT22;52402;52.670;6.750;2022-09-09T11:19:03;20.90;99.90
60293;DHT22;52402;52.670;6.750;2022-09-09T11:21:34;20.90;99.90
60293;DHT22;52402;52.670;6.750;2022-09-09T11:24:06;20.90;99.90
60293;DHT22;52402;52.670;6.750;2022-09-09T11:26:54;20.80;99.90
60293;DHT22;52402;52.670;6.750;2022-09-09T11:29:30;20.70;99.90
60293;DHT22;52402;52.670;6.750;2022-09-09T11:32:20;20.60;99.90
60293;DHT22;52402;52.670;6.750;2022-09-09T11:35:08;20.60;99.90
60293;DHT22;52402;52.670;6.750;2022-09-09T11:40:26;20.30;99.90
60293;DHT22;52402;52.670;6.750;2022-09-09T11:45:34;20.20;99.90
60293;DHT22;52402;52.670;6.750;2022-09-09T11:48:02;20.20;99.90
60293;DHT22;52402;52.670;6.750;2022-09-09T11:50:35;20.30;99.90
60293;DHT22;52402;52.670;6.750;2022-09-09T11:55:39;20.50;99.90
60293;DHT22;52402;52.670;6.750;2022-09-09T11:58:06;20.80;99.90
60293;DHT22;52402;52.670;6.750;2022-09-09T12:00:48;20.80;99.90
60293;DHT22;52402;52.670;6.750;2022-09-09T12:03:39;21.10;99.90
60293;DHT22;52402;52.670;6.750;2022-09-09T12:06:26;21.10;99.90
60293;DHT22;52402;52.670;6.750;2022-09-09T12:08:58;21.00;99.90
60293;DHT22;52402;52.670;6.750;2022-09-09T12:11:31;21.00;99.90
60293;DHT22;52402;52.670;6.750;2022-09-09T12:13:59;21.00;99.90
60293;DHT22;52402;52.670;6.750;2022-09-09T12:16:34;20.90;99.90
60293;DHT22;52402;52.670;6.750;2022-09-09T12:19:19;20.90;99.90
60293;DHT22;52402;52.670;6.750;2022-09-09T12:22:13;20.90;99.90
60293;DHT22;52402;52.670;6.750;2022-09-09T12:24:56;20.70;99.90
60293;DHT22;52402;52.670;6.750;2022-09-09T12:27:30;20.60;99.90
60293;DHT22;52402;52.670;6.750;2022-09-09T12:30:10;20.60;99.90
60293;DHT22;52402;52.670;6.750;2022-09-09T12:32:36;20.60;99.90
60293;DHT22;52402;52.670;6.750;2022-09-09T12:37:43;20.50;99.90
60293;DHT22;52402;52.670;6.750;2022-09-09T12:40:22;20.30;99.90
60293;DHT22;52402;52.670;6.750;2022-09-09T12:42:49;20.40;99.90
60293;DHT22;52402;52.670;6.750;2022-09-09T12:47:53;20.70;99.90
60293;DHT22;52402;52.670;6.750;2022-09-09T12:50:26;20.80;99.90
60293;DHT22;52402;52.670;6.750;2022-09-09T12:53:06;20.70;99.90
60293;DHT22;52402;52.670;6.750;2022-09-09T12:55:36;20.50;99.90
60293;DHT22;52402;52.670;6.750;2022-09-09T12:58:05;20.60;99.90
60293;DHT22;52402;52.670;6.750;2022-09-09T13:00:33;20.60;99.90
60293;DHT22;52402;52.670;6.750;2022-09-09T13:03:14;20.70;99.90
60293;DHT22;52402;52.670;6.750;2022-09-09T13:05:41;20.80;99.90
60293;DHT22;52402;52.670;6.750;2022-09-09T13:08:11;21.30;99.90
60293;DHT22;52402;52.670;6.750;2022-09-09T13:10:47;21.80;99.90
60293;DHT22;52402;52.670;6.750;2022-09-09T13:13:17;22.30;99.90
60293;DHT22;52402;52.670;6.750;2022-09-09T13:15:50;22.20;99.90
60293;DHT22;52402;52.670;6.750;2022-09-09T13:18:20;22.10;99.90
60293;DHT22;52402;52.670;6.750;2022-09-09T13:20:47;22.00;99.90
60293;DHT22;52402;52.670;6.750;2022-09-09T13:23:14;22.20;99.90
60293;DHT22;52402;52.670;6.750;2022-09-09T13:25:40;22.40;99.90
60293;DHT22;52402;52.670;6.750;2022-09-09T13:28:21;22.30;99.90
60293;DHT22;52402;52.670;6.750;2022-09-09T13:30:56;22.10;99.90
60293;DHT22;52402;52.670;6.750;2022-09-09T13:33:30;21.90;99.90
60293;DHT22;52402;52.670;6.750;2022-09-09T13:36:06;21.90;99.90
60293;DHT22;52402;52.670;6.750;2022-09-09T13:38:40;21.80;99.90
60293;DHT22;52402;52.670;6.750;2022-09-09T13:41:22;21.80;99.90
60293;DHT22;52402;52.670;6.750;2022-09-09T13:43:50;21.60;99.90
60293;DHT22;52402;52.670;6.750;2022-09-09T13:46:34;21.30;99.90
60293;DHT22;52402;52.670;6.750;2022-09-09T13:49:19;21.20;99.90
60293;DHT22;52402;52.670;6.750;2022-09-09T13:51:50;20.90;99.90
60293;DHT22;52402;52.670;6.750;2022-09-09T13:54:20;20.30;99.90
60293;DHT22;52402;52.670;6.750;2022-09-09T13:56:46;20.00;99.90
60293;DHT22;52402;52.670;6.750;2022-09-09T13:59:15;19.60;99.90
60293;DHT22;52402;52.670;6.750;2022-09-09T14:01:42;19.30;99.90
60293;DHT22;52402;52.670;6.750;2022-09-09T14:04:08;19.10;99.90
60293;DHT22;52402;52.670;6.750;2022-09-09T14:06:38;19.00;99.90
60293;DHT22;52402;52.670;6.750;2022-09-09T14:09:11;18.90;99.90
60293;DHT22;52402;52.670;6.750;2022-09-09T14:11:37;18.80;99.90
60293;DHT22;52402;52.670;6.750;2022-09-09T14:14:10;19.00;99.90
60293;DHT22;52402;52.670;6.750;2022-09-09T14:16:36;19.40;99.90
60293;DHT22;52402;52.670;6.750;2022-09-09T14:19:03;19.60;99.90
60293;DHT22;52402;52.670;6.750;2022-09-09T14:21:28;19.90;99.90
60293;DHT22;52402;52.670;6.750;2022-09-09T14:23:55;20.00;99.90
60293;DHT22;52402;52.670;6.750;2022-09-09T14:26:24;20.20;99.90
60293;DHT22;52402;52.670;6.750;2022-09-09T14:28:50;20.40;99.90
60293;DHT22;52402;52.670;6.750;2022-09-09T14:31:17;20.50;99.90
60293;DHT22;52402;52.670;6.750;2022-09-09T14:33:44;20.70;99.90
60293;DHT22;52402;52.670;6.750;2022-09-09T14:36:10;20.90;99.90
60293;DHT22;52402;52.670;6.750;2022-09-09T14:38:38;21.10;99.90
60293;DHT22;52402;52.670;6.750;2022-09-09T14:41:16;21.10;99.90
60293;DHT22;52402;52.670;6.750;2022-09-09T14:43:45;20.90;99.90
60293;DHT22;52402;52.670;6.750;2022-09-09T14:46:14;20.70;99.90
60293;DHT22;52402;52.670;6.750;2022-09-09T14:48:40;20.50;99.90
60293;DHT22;52402;52.670;6.750;2022-09-09T14:51:08;20.20;99.90
60293;DHT22;52402;52.670;6.750;2022-09-09T14:53:34;20.30;99.90
60293;DHT22;52402;52.670;6.750;2022-09-09T14:56:09;20.20;99.90
60293;DHT22;52402;52.670;6.750;2022-09-09T14:58:36;20.00;99.90
60293;DHT22;52402;52.670;6.750;2022-09-09T15:01:08;19.90;99.90
60293;DHT22;52402;52.670;6.750;2022-09-09T15:03:39;19.90;99.90
60293;DHT22;52402;52.670;6.750;2022-09-09T15:06:12;19.70;99.90
60293;DHT22;52402;52.670;6.750;2022-09-09T15:08:43;19.70;99.90
60293;DHT22;52402;52.670;6.750;2022-09-09T15:11:11;19.70;99.90
60293;DHT22;52402;52.670;6.750;2022-09-09T15:13:38;19.80;99.90
60293;DHT22;52402;52.670;6.750;2022-09-09T15:16:16;19.90;99.90
60293;DHT22;52402;52.670;6.750;2022-09-09T15:18:42;19.90;99.90
60293;DHT22;52402;52.670;6.750;2022-09-09T15:21:15;19.70;99.90
60293;DHT22;52402;52.670;6.750;2022-09-09T15:23:41;19.60;99.90
60293;DHT22;52402;52.670;6.750;2022-09-09T15:26:07;19.50;99.90
60293;DHT22;52402;52.670;6.750;2022-09-09T15:28:34;19.40;99.90
60293;DHT22;52402;52.670;6.750;2022-09-09T15:31:06;19.30;99.90
60293;DHT22;52402;52.670;6.750;2022-09-09T15:33:33;19.30;99.90
60293;DHT22;52402;52.670;6.750;2022-09-09T15:35:59;19.40;99.90
60293;DHT22;52402;52.670;6.750;2022-09-09T15:38:25;19.30;99.90
60293;DHT22;52402;52.670;6.750;2022-09-09T15:40:54;19.40;99.90
60293;DHT22;52402;52.670;6.750;2022-09-09T15:43:20;19.50;99.90
60293;DHT22;52402;52.670;6.750;2022-09-09T15:45:53;19.60;99.90
60293;DHT22;52402;52.670;6.750;2022-09-09T15:48:29;19.70;99.90
60293;DHT22;52402;52.670;6.750;2022-09-09T15:51:03;19.70;99.90
60293;DHT22;52402;52.670;6.750;2022-09-09T15:53:30;19.60;99.90
60293;DHT22;52402;52.670;6.750;2022-09-09T15:55:58;19.60;99.90
60293;DHT22;52402;52.670;6.750;2022-09-09T15:58:23;19.30;99.90
60293;DHT22;52402;52.670;6.750;2022-09-09T16:00:49;19.30;99.90
60293;DHT22;52402;52.670;6.750;2022-09-09T16:03:14;19.20;99.90
60293;DHT22;52402;52.670;6.750;2022-09-09T16:05:40;19.20;99.90
60293;DHT22;52402;52.670;6.750;2022-09-09T16:08:06;19.20;99.90
60293;DHT22;52402;52.670;6.750;2022-09-09T16:10:32;19.10;99.90
60293;DHT22;52402;52.670;6.750;2022-09-09T16:12:58;19.10;99.90
60293;DHT22;52402;52.670;6.750;2022-09-09T16:15:24;19.10;99.90
60293;DHT22;52402;52.670;6.750;2022-09-09T16:17:53;19.00;99.90
60293;DHT22;52402;52.670;6.750;2022-09-09T16:20:19;19.00;99.90
60293;DHT22;52402;52.670;6.750;2022-09-09T16:22:45;19.10;99.90
60293;DHT22;52402;52.670;6.750;2022-09-09T16:25:11;19.10;99.90
60293;DHT22;52402;52.670;6.750;2022-09-09T16:27:37;19.10;99.90
60293;DHT22;52402;52.670;6.750;2022-09-09T16:30:03;19.00;99.90
60293;DHT22;52402;52.670;6.750;2022-09-09T16:32:29;19.10;99.90
60293;DHT22;52402;52.670;6.750;2022-09-09T16:34:55;19.00;99.90
60293;DHT22;52402;52.670;6.750;2022-09-09T16:37:20;18.90;99.90
60293;DHT22;52402;52.670;6.750;2022-09-09T16:39:46;18.90;99.90
60293;DHT22;52402;52.670;6.750;2022-09-09T16:42:11;18.90;99.90
60293;DHT22;52402;52.670;6.750;2022-09-09T16:44:37;18.80;99.90
60293;DHT22;52402;52.670;6.750;2022-09-09T16:47:03;18.70;99.90
60293;DHT22;52402;52.670;6.750;2022-09-09T16:49:29;18.70;99.90
60293;DHT22;52402;52.670;6.750;2022-09-09T16:51:57;18.60;99.90
60293;DHT22;52402;52.670;6.750;2022-09-09T16:54:23;18.60;99.90
60293;DHT22;52402;52.670;6.750;2022-09-09T16:56:50;18.50;99.90
60293;DHT22;52402;52.670;6.750;2022-09-09T16:59:20;18.50;99.90
60293;DHT22;52402;52.670;6.750;2022-09-09T17:01:47;18.40;99.90
60293;DHT22;52402;52.670;6.750;2022-09-09T17:04:15;18.30;99.90
60293;DHT22;52402;52.670;6.750;2022-09-09T17:06:47;18.30;99.90
60293;DHT22;52402;52.670;6.750;2022-09-09T17:09:15;18.20;99.90
60293;DHT22;52402;52.670;6.750;2022-09-09T17:11:40;18.20;99.90
60293;DHT22;52402;52.670;6.750;2022-09-09T17:14:08;18.10;99.90
60293;DHT22;52402;52.670;6.750;2022-09-09T17:16:35;18.10;99.90
60293;DHT22;52402;52.670;6.750;2022-09-09T17:19:02;18.10;99.90
60293;DHT22;52402;52.670;6.750;2022-09-09T17:21:29;18.10;99.90
60293;DHT22;52402;52.670;6.750;2022-09-09T17:23:56;18.10;99.90
60293;DHT22;52402;52.670;6.750;2022-09-09T17:26:24;18.10;99.90
60293;DHT22;52402;52.670;6.750;2022-09-09T17:28:52;18.00;99.90
60293;DHT22;52402;52.670;6.750;2022-09-09T17:31:18;18.10;99.90
60293;DHT22;52402;52.670;6.750;2022-09-09T17:33:45;18.00;99.90
60293;DHT22;52402;52.670;6.750;2022-09-09T17:36:20;18.00;99.90
60293;DHT22;52402;52.670;6.750;2022-09-09T17:38:47;18.00;99.90
60293;DHT22;52402;52.670;6.750;2022-09-09T17:43:43;18.00;99.90
60293;DHT22;52402;52.670;6.750;2022-09-09T17:46:16;18.00;99.90
60293;DHT22;52402;52.670;6.750;2022-09-09T17:48:44;17.90;99.90
60293;DHT22;52402;52.670;6.750;2022-09-09T17:51:13;17.90;99.90